createdAt,value
2023-04-23T00:02:01.073Z,6.60
2023-04-23T00:05:08.278Z,6.57
2023-04-23T00:08:14.936Z,6.56
2023-04-23T00:11:21.556Z,6.55
2023-04-23T00:14:29.537Z,6.55
2023-04-23T00:17:35.651Z,6.51
2023-04-23T00:20:42.783Z,6.46
2023-04-23T00:23:50.864Z,6.42
2023-04-23T00:26:56.358Z,6.40
2023-04-23T00:30:02.866Z,6.39
2023-04-23T00:33:09.484Z,6.34
2023-04-23T00:36:15.194Z,6.30
2023-04-23T00:39:22.388Z,6.28
2023-04-23T00:42:28.228Z,6.23
2023-04-23T00:45:33.065Z,6.18
2023-04-23T00:48:40.735Z,6.14
2023-04-23T00:51:46.815Z,6.09
2023-04-23T00:54:52.490Z,6.03
2023-04-23T00:57:58.902Z,5.98
2023-04-23T01:01:08.348Z,5.90
2023-04-23T01:04:16.185Z,5.85
2023-04-23T01:07:22.793Z,5.82
2023-04-23T01:10:28.250Z,5.80
2023-04-23T01:13:35.912Z,5.79
2023-04-23T01:16:46.027Z,5.76
2023-04-23T01:19:52.445Z,5.73
2023-04-23T01:22:58.570Z,5.68
2023-04-23T01:26:05.726Z,5.65
2023-04-23T01:29:11.703Z,5.61
2023-04-23T01:32:18.016Z,5.59
2023-04-23T01:35:25.447Z,5.52
2023-04-23T01:38:30.675Z,5.48
2023-04-23T01:41:37.434Z,5.46
2023-04-23T01:44:42.998Z,5.42
2023-04-23T01:47:51.486Z,5.38
2023-04-23T01:50:58.982Z,5.35
2023-04-23T01:54:05.537Z,5.32
2023-04-23T01:57:12.273Z,5.29
2023-04-23T02:00:24.206Z,5.24
2023-04-23T02:03:29.697Z,5.18
2023-04-23T02:06:35.807Z,5.13
2023-04-23T02:09:42.287Z,5.11
2023-04-23T02:12:49.388Z,5.06
2023-04-23T02:15:55.587Z,4.99
2023-04-23T02:19:02.753Z,4.96
2023-04-23T02:22:09.345Z,4.92
2023-04-23T02:25:14.944Z,4.87
2023-04-23T02:28:21.889Z,4.85
2023-04-23T02:31:28.678Z,4.84
2023-04-23T02:34:36.139Z,4.84
2023-04-23T02:37:44.365Z,4.82
2023-04-23T02:40:50.519Z,4.80
2023-04-23T02:43:56.828Z,4.79
2023-04-23T02:47:03.747Z,4.79
2023-04-23T02:50:13.036Z,4.78
2023-04-23T02:53:18.964Z,4.77
2023-04-23T02:56:24.208Z,4.76
2023-04-23T02:59:30.779Z,4.76
2023-04-23T03:02:36.900Z,4.76
2023-04-23T03:05:45.446Z,4.75
2023-04-23T03:08:51.712Z,4.75
2023-04-23T03:11:57.557Z,4.74
2023-04-23T03:15:02.608Z,4.70
2023-04-23T03:18:08.114Z,4.71
2023-04-23T03:21:13.377Z,4.75
2023-04-23T03:24:18.577Z,4.80
2023-04-23T03:27:23.937Z,4.82
2023-04-23T03:30:29.345Z,4.82
2023-04-23T03:33:35.202Z,4.86
2023-04-23T03:36:41.312Z,4.90
2023-04-23T03:39:47.295Z,4.94
2023-04-23T03:42:53.290Z,4.96
2023-04-23T03:45:59.924Z,5.01
2023-04-23T03:49:08.098Z,5.07
2023-04-23T03:52:15.174Z,5.11
2023-04-23T03:55:22.536Z,5.15
2023-04-23T03:58:28.142Z,5.19
2023-04-23T04:01:34.413Z,5.21
2023-04-23T04:04:40.667Z,5.25
2023-04-23T04:07:51.015Z,5.32
2023-04-23T04:10:57.415Z,5.39
2023-04-23T04:14:04.115Z,5.44
2023-04-23T04:17:09.498Z,5.50
2023-04-23T04:20:16.247Z,5.58
2023-04-23T04:23:21.828Z,5.62
2023-04-23T04:26:28.958Z,5.74
2023-04-23T04:29:34.946Z,5.84
2023-04-23T04:32:45.084Z,5.98
2023-04-23T04:35:52.616Z,6.10
2023-04-23T04:39:10.136Z,6.22
2023-04-23T04:42:16.219Z,6.35
2023-04-23T04:45:23.741Z,6.48
2023-04-23T04:48:30.353Z,6.59
2023-04-23T04:51:37.951Z,6.72
2023-04-23T04:54:43.623Z,6.85
2023-04-23T04:57:50.800Z,6.99
2023-04-23T05:01:00.090Z,7.14
2023-04-23T05:04:05.648Z,7.30
2023-04-23T05:07:12.895Z,7.47
2023-04-23T05:10:21.069Z,7.65
2023-04-23T05:13:28.184Z,7.80
2023-04-23T05:16:34.477Z,7.98
2023-04-23T05:19:40.322Z,8.15
2023-04-23T05:22:46.282Z,8.34
2023-04-23T05:25:54.730Z,8.50
2023-04-23T05:29:00.925Z,8.67
2023-04-23T05:32:06.520Z,8.87
2023-04-23T05:35:14.202Z,9.02
2023-04-23T05:38:20.500Z,9.21
2023-04-23T05:41:27.059Z,9.39
2023-04-23T05:44:33.750Z,9.58
2023-04-23T05:47:40.967Z,9.73
2023-04-23T05:50:46.826Z,9.87
2023-04-23T05:53:53.513Z,10.00
2023-04-23T05:56:58.891Z,10.15
2023-04-23T06:00:04.939Z,10.28
2023-04-23T06:03:14.901Z,10.43
2023-04-23T06:06:22.155Z,10.55
2023-04-23T06:09:28.767Z,10.68
2023-04-23T06:12:35.359Z,10.83
2023-04-23T06:15:41.307Z,10.96
2023-04-23T06:18:49.059Z,11.10
2023-04-23T06:21:54.431Z,11.25
2023-04-23T06:25:00.605Z,11.42
2023-04-23T06:28:08.318Z,11.54
2023-04-23T06:31:16.003Z,11.71
2023-04-23T06:34:22.196Z,11.85
2023-04-23T06:37:30.172Z,11.98
2023-04-23T06:40:36.883Z,12.13
2023-04-23T06:43:45.008Z,12.28
2023-04-23T06:46:58.532Z,12.43
2023-04-23T06:50:05.403Z,12.59
2023-04-23T06:53:11.662Z,12.74
2023-04-23T06:56:18.352Z,12.85
2023-04-23T06:59:24.984Z,13.01
2023-04-23T07:02:32.123Z,13.13
2023-04-23T07:05:37.605Z,13.28
2023-04-23T07:08:43.398Z,13.41
2023-04-23T07:11:49.330Z,13.54
2023-04-23T07:14:55.837Z,13.68
2023-04-23T07:18:03.057Z,13.82
2023-04-23T07:21:10.307Z,13.96
2023-04-23T07:24:16.899Z,14.12
2023-04-23T07:27:22.958Z,14.25
2023-04-23T07:30:30.146Z,14.37
2023-04-23T07:33:37.518Z,14.47
2023-04-23T07:36:44.235Z,14.59
2023-04-23T07:39:49.655Z,14.72
2023-04-23T07:42:58.721Z,14.84
2023-04-23T07:46:05.366Z,14.98
2023-04-23T07:49:11.807Z,15.12
2023-04-23T07:52:16.630Z,15.20
2023-04-23T07:55:24.385Z,15.29
2023-04-23T07:58:30.184Z,15.41
2023-04-23T08:01:36.079Z,15.51
2023-04-23T08:04:43.063Z,15.62
2023-04-23T08:07:49.323Z,15.74
2023-04-23T08:10:55.231Z,15.86
2023-04-23T08:14:01.611Z,15.97
2023-04-23T08:17:07.551Z,16.04
2023-04-23T08:20:15.180Z,16.13
2023-04-23T08:23:23.531Z,16.26
2023-04-23T08:26:30.992Z,16.35
2023-04-23T08:29:38.132Z,16.43
2023-04-23T08:32:46.028Z,16.50
2023-04-23T08:35:53.080Z,16.59
2023-04-23T08:38:58.920Z,16.66
2023-04-23T08:42:09.027Z,16.77
2023-04-23T08:45:15.346Z,16.86
2023-04-23T08:48:27.561Z,16.97
2023-04-23T08:51:33.818Z,17.09
2023-04-23T08:54:43.532Z,17.19
2023-04-23T08:57:50.412Z,17.31
2023-04-23T09:00:57.752Z,17.51
2023-04-23T09:04:03.339Z,17.71
2023-04-23T09:07:13.054Z,17.82
2023-04-23T09:10:20.343Z,17.83
2023-04-23T09:13:27.437Z,17.83
2023-04-23T09:16:33.301Z,17.86
2023-04-23T09:19:40.078Z,17.86
2023-04-23T09:22:59.525Z,17.84
2023-04-23T09:26:09.844Z,17.84
2023-04-23T09:29:17.569Z,17.83
2023-04-23T09:32:25.040Z,17.82
2023-04-23T09:35:33.130Z,17.81
2023-04-23T09:38:38.942Z,17.79
2023-04-23T09:41:45.817Z,17.76
2023-04-23T09:44:53.093Z,17.71
2023-04-23T09:48:05.882Z,17.69
2023-04-23T09:51:10.601Z,17.67
2023-04-23T09:54:18.724Z,17.67
2023-04-23T09:57:26.094Z,17.69
2023-04-23T10:00:38.064Z,17.72
2023-04-23T10:03:43.580Z,17.74
2023-04-23T10:07:02.372Z,17.75
2023-04-23T10:09:52.487Z,17.75
2023-04-23T10:12:53.476Z,17.68
2023-04-23T10:15:35.429Z,17.63
2023-04-23T10:18:29.967Z,17.58
2023-04-23T10:21:50.035Z,17.52
2023-04-23T10:24:44.312Z,17.45
2023-04-23T10:27:54.679Z,17.42
2023-04-23T10:31:02.877Z,17.40
2023-04-23T10:34:10.689Z,17.37
2023-04-23T10:37:16.551Z,17.39
2023-04-23T10:40:28.411Z,17.45
2023-04-23T10:43:34.678Z,17.55
2023-04-23T10:46:46.557Z,17.68
2023-04-23T10:49:53.711Z,17.75
2023-04-23T10:53:05.284Z,17.66
2023-04-23T10:56:22.649Z,17.64
2023-04-23T10:59:36.850Z,17.53
2023-04-23T11:02:43.497Z,17.41
2023-04-23T11:05:50.970Z,17.44
2023-04-23T11:09:09.903Z,17.44
2023-04-23T11:12:16.780Z,17.46
2023-04-23T11:15:31.312Z,17.59
2023-04-23T11:18:39.019Z,17.76
2023-04-23T11:22:21.444Z,17.87
2023-04-23T11:25:39.204Z,17.96
2023-04-23T11:28:45.087Z,18.07
2023-04-23T11:32:01.433Z,18.18
2023-04-23T11:35:01.650Z,18.30
2023-04-23T11:38:07.929Z,18.46
2023-04-23T11:41:15.091Z,18.62
2023-04-23T11:44:20.319Z,18.80
2023-04-23T11:47:28.539Z,18.81
2023-04-23T11:50:39.948Z,18.71
2023-04-23T11:53:46.172Z,18.67
2023-04-23T11:56:52.760Z,18.65
2023-04-23T11:59:58.757Z,18.63
2023-04-23T12:03:16.624Z,18.58
2023-04-23T12:06:22.199Z,18.58
2023-04-23T12:09:30.174Z,18.59
2023-04-23T12:12:36.281Z,18.58
2023-04-23T12:15:42.870Z,18.48
2023-04-23T12:18:54.967Z,18.37
2023-04-23T12:22:14.899Z,18.36
2023-04-23T12:25:21.124Z,18.38
2023-04-23T12:28:28.507Z,18.49
2023-04-23T12:31:40.465Z,18.62
2023-04-23T12:34:48.546Z,18.74
2023-04-23T12:37:55.967Z,18.86
2023-04-23T12:41:02.381Z,18.93
2023-04-23T12:44:08.139Z,18.86
2023-04-23T12:47:17.798Z,18.78
2023-04-23T12:50:25.365Z,18.80
2023-04-23T12:53:32.559Z,18.93
2023-04-23T12:56:38.045Z,19.01
2023-04-23T12:59:44.196Z,19.10
2023-04-23T13:02:51.191Z,19.09
2023-04-23T13:05:57.930Z,19.07
2023-04-23T13:09:05.591Z,19.18
2023-04-23T13:12:10.558Z,19.28
2023-04-23T13:15:16.377Z,19.33
2023-04-23T13:18:22.635Z,19.39
2023-04-23T13:21:28.964Z,19.53
2023-04-23T13:24:35.706Z,19.66
2023-04-23T13:27:43.616Z,19.77
2023-04-23T13:30:48.993Z,19.91
2023-04-23T13:33:55.483Z,20.05
2023-04-23T13:37:01.509Z,20.18
2023-04-23T13:40:07.654Z,20.24
2023-04-23T13:43:14.155Z,20.25
2023-04-23T13:46:21.608Z,20.25
2023-04-23T13:49:27.390Z,20.25
2023-04-23T13:52:34.669Z,20.20
2023-04-23T13:55:40.273Z,20.10
2023-04-23T13:58:48.596Z,20.02
2023-04-23T14:01:58.119Z,19.96
2023-04-23T14:05:04.675Z,19.86
2023-04-23T14:08:10.424Z,19.78
2023-04-23T14:11:17.088Z,19.86
2023-04-23T14:14:22.007Z,19.90
2023-04-23T14:17:27.615Z,19.78
2023-04-23T14:20:34.578Z,19.61
2023-04-23T14:23:59.476Z,19.29
2023-04-23T14:27:05.771Z,19.04
2023-04-23T14:30:15.468Z,18.77
2023-04-23T14:33:21.002Z,18.54
2023-04-23T14:36:27.493Z,18.34
2023-04-23T14:39:33.196Z,18.17
2023-04-23T14:42:38.088Z,18.26
2023-04-23T14:45:44.914Z,19.16
2023-04-23T14:48:51.667Z,19.83
2023-04-23T14:52:01.105Z,20.34
2023-04-23T14:55:06.501Z,21.00
2023-04-23T14:58:12.944Z,21.52
2023-04-23T15:01:17.975Z,21.67
2023-04-23T15:04:26.464Z,21.87
2023-04-23T15:07:33.044Z,21.78
2023-04-23T15:10:38.115Z,21.22
2023-04-23T15:14:13.103Z,20.86
2023-04-23T15:17:19.238Z,20.78
2023-04-23T15:20:25.989Z,20.82
2023-04-23T15:23:32.615Z,21.03
2023-04-23T15:26:40.843Z,21.10
2023-04-23T15:29:48.774Z,20.80
2023-04-23T15:32:54.714Z,20.41
2023-04-23T15:36:02.917Z,20.01
2023-04-23T15:39:08.144Z,19.67
2023-04-23T15:42:13.136Z,19.78
2023-04-23T15:45:20.992Z,20.02
2023-04-23T15:48:26.640Z,20.03
2023-04-23T15:51:34.787Z,20.53
2023-04-23T15:54:40.519Z,21.17
2023-04-23T15:57:46.367Z,21.56
2023-04-23T16:00:51.557Z,21.30
2023-04-23T16:07:05.950Z,21.27
2023-04-23T16:10:11.810Z,21.32
2023-04-23T16:13:18.837Z,20.85
2023-04-23T16:16:24.219Z,20.18
2023-04-23T16:19:32.214Z,19.57
2023-04-23T16:22:38.733Z,19.01
2023-04-23T16:25:45.037Z,18.55
2023-04-23T16:28:56.377Z,18.18
2023-04-23T16:31:58.105Z,17.86
2023-04-23T16:35:03.599Z,17.57
2023-04-23T16:38:10.186Z,17.26
2023-04-23T16:41:15.630Z,16.97
2023-04-23T16:44:23.720Z,16.63
2023-04-23T16:47:29.560Z,16.27
2023-04-23T16:50:36.159Z,15.96
2023-04-23T16:53:43.187Z,15.68
2023-04-23T16:56:50.872Z,15.45
2023-04-23T16:59:56.287Z,15.26
2023-04-23T17:03:02.475Z,15.03
2023-04-23T17:06:23.450Z,14.79
2023-04-23T17:09:29.498Z,14.55
2023-04-23T17:12:35.900Z,14.27
2023-04-23T17:15:43.186Z,14.01
2023-04-23T17:18:50.756Z,13.77
2023-04-23T17:21:56.291Z,13.54
2023-04-23T17:25:03.269Z,13.34
2023-04-23T17:28:09.283Z,13.14
2023-04-23T17:31:15.196Z,12.97
2023-04-23T17:34:20.802Z,12.82
2023-04-23T17:37:26.128Z,12.69
2023-04-23T17:40:32.154Z,12.54
2023-04-23T17:43:40.575Z,12.38
2023-04-23T17:46:47.817Z,12.20
2023-04-23T17:49:54.147Z,12.05
2023-04-23T17:52:59.184Z,11.93
2023-04-23T17:56:06.294Z,11.81
2023-04-23T17:59:12.096Z,11.69
2023-04-23T18:02:18.748Z,11.56
2023-04-23T18:05:27.485Z,11.43
2023-04-23T18:08:33.608Z,11.29
2023-04-23T18:11:39.352Z,11.15
2023-04-23T18:14:45.161Z,11.03
2023-04-23T18:17:50.989Z,10.91
2023-04-23T18:20:55.834Z,10.81
2023-04-23T18:24:02.195Z,10.71
2023-04-23T18:27:11.195Z,10.63
2023-04-23T18:30:18.472Z,10.55
2023-04-23T18:34:05.414Z,10.45
2023-04-23T18:37:13.314Z,10.36
2023-04-23T18:40:21.602Z,10.23
2023-04-23T18:43:29.496Z,10.14
2023-04-23T18:46:36.278Z,10.05
2023-04-23T18:50:07.259Z,9.97
2023-04-23T18:53:13.281Z,9.84
2023-04-23T18:56:19.415Z,9.73
2023-04-23T18:59:26.306Z,9.65
2023-04-23T19:02:35.954Z,9.58
2023-04-23T19:05:41.266Z,9.53
2023-04-23T19:08:50.124Z,9.48
2023-04-23T19:11:57.026Z,9.45
2023-04-23T19:15:01.972Z,9.41
2023-04-23T19:18:08.629Z,9.36
2023-04-23T19:21:16.430Z,9.31
2023-04-23T19:24:22.014Z,9.25
2023-04-23T19:27:29.570Z,9.16
2023-04-23T19:30:34.891Z,9.09
2023-04-23T19:33:39.988Z,9.01
2023-04-23T19:36:45.642Z,8.95
2023-04-23T19:39:52.062Z,8.89
2023-04-23T19:42:59.774Z,8.82
2023-04-23T19:46:09.133Z,8.75
2023-04-23T19:49:15.614Z,8.67
2023-04-23T19:52:22.532Z,8.62
2023-04-23T19:55:30.575Z,8.59
2023-04-23T19:58:37.653Z,8.54
2023-04-23T20:01:43.899Z,8.49
2023-04-23T20:04:52.304Z,8.42
2023-04-23T20:07:59.717Z,8.37
2023-04-23T20:11:05.911Z,8.30
2023-04-23T20:14:11.203Z,8.24
2023-04-23T20:17:17.659Z,8.19
2023-04-23T20:20:25.147Z,8.13
2023-04-23T20:23:30.816Z,8.08
2023-04-23T20:26:36.406Z,8.03
2023-04-23T20:29:42.146Z,7.98
2023-04-23T20:32:47.559Z,7.93
2023-04-23T20:35:54.944Z,7.88
2023-04-23T20:39:01.462Z,7.82
2023-04-23T20:42:08.112Z,7.78
2023-04-23T20:45:15.460Z,7.74
2023-04-23T20:48:25.732Z,7.71
2023-04-23T20:51:31.205Z,7.69
2023-04-23T20:54:37.177Z,7.65
2023-04-23T20:57:45.649Z,7.62
2023-04-23T21:00:52.658Z,7.56
2023-04-23T21:04:00.565Z,7.49
2023-04-23T21:07:08.775Z,7.48
2023-04-23T21:10:16.550Z,7.46
2023-04-23T21:13:25.307Z,7.44
2023-04-23T21:16:32.009Z,7.40
2023-04-23T21:19:38.364Z,7.36
2023-04-23T21:22:43.448Z,7.32
2023-04-23T21:25:49.683Z,7.29
2023-04-23T21:28:56.157Z,7.27
2023-04-23T21:32:04.520Z,7.23
2023-04-23T21:35:11.277Z,7.18
2023-04-23T21:38:18.780Z,7.13
2023-04-23T21:41:25.771Z,7.10
2023-04-23T21:44:33.517Z,7.07
2023-04-23T21:47:39.292Z,7.04
2023-04-23T21:50:46.801Z,7.04
2023-04-23T21:53:52.900Z,7.06
2023-04-23T21:56:59.365Z,7.07
2023-04-23T22:00:06.336Z,7.03
2023-04-23T22:03:17.619Z,7.00
2023-04-23T22:06:24.126Z,6.95
2023-04-23T22:09:30.447Z,6.92
2023-04-23T22:12:36.970Z,6.90
2023-04-23T22:15:43.448Z,6.88
2023-04-23T22:18:49.372Z,6.86
2023-04-23T22:21:56.876Z,6.81
2023-04-23T22:25:02.246Z,6.74
2023-04-23T22:28:09.360Z,6.72
2023-04-23T22:31:16.255Z,6.69
2023-04-23T22:34:23.244Z,6.68
2023-04-23T22:37:29.406Z,6.67
2023-04-23T22:40:34.942Z,6.66
2023-04-23T22:43:41.206Z,6.64
2023-04-23T22:46:47.563Z,6.62
2023-04-23T22:49:52.827Z,6.60
2023-04-23T22:52:58.925Z,6.56
2023-04-23T22:56:05.616Z,6.48
2023-04-23T22:59:14.781Z,6.40
2023-04-23T23:02:20.506Z,6.37
2023-04-23T23:05:27.050Z,6.33
2023-04-23T23:08:34.175Z,6.27
2023-04-23T23:11:35.044Z,6.24
2023-04-23T23:14:36.278Z,6.20
2023-04-23T23:17:42.287Z,6.17
2023-04-23T23:20:53.575Z,6.16
2023-04-23T23:23:58.312Z,6.15
2023-04-23T23:27:06.513Z,6.17
2023-04-23T23:30:16.860Z,6.18
2023-04-23T23:33:22.811Z,6.19
2023-04-23T23:36:29.671Z,6.17
2023-04-23T23:39:37.915Z,6.15
2023-04-23T23:42:43.505Z,6.15
2023-04-23T23:45:49.710Z,6.09
2023-04-23T23:48:55.952Z,6.04
2023-04-23T23:52:02.367Z,5.99
2023-04-23T23:55:10.231Z,5.95
2023-04-23T23:58:16.612Z,5.94
